sensor_id;sensor_type;location;lat;lon;timestamp;temperature;humidity
18175;DHT22;9212;50.894;16.714;2022-12-08T00:00:05;1.00;99.90
18175;DHT22;9212;50.894;16.714;2022-12-08T00:02:32;1.10;99.90
18175;DHT22;9212;50.894;16.714;2022-12-08T00:10:28;1.10;99.90
18175;DHT22;9212;50.894;16.714;2022-12-08T00:12:56;0.70;99.90
18175;DHT22;9212;50.894;16.714;2022-12-08T00:15:23;0.20;99.90
18175;DHT22;9212;50.894;16.714;2022-12-08T00:17:50;0.50;99.90
18175;DHT22;9212;50.894;16.714;2022-12-08T00:20:17;0.50;99.90
18175;DHT22;9212;50.894;16.714;2022-12-08T00:22:44;0.40;99.90
18175;DHT22;9212;50.894;16.714;2022-12-08T00:25:10;0.30;99.90
18175;DHT22;9212;50.894;16.714;2022-12-08T00:30:09;0.40;99.90
18175;DHT22;9212;50.894;16.714;2022-12-08T00:32:36;0.50;99.90
18175;DHT22;9212;50.894;16.714;2022-12-08T00:35:04;0.60;99.90
18175;DHT22;9212;50.894;16.714;2022-12-08T00:37:31;0.20;99.90
18175;DHT22;9212;50.894;16.714;2022-12-08T00:39:58;0.00;99.90
18175;DHT22;9212;50.894;16.714;2022-12-08T00:42:25;-0.10;99.90
18175;DHT22;9212;50.894;16.714;2022-12-08T00:44:51;0.10;99.90
18175;DHT22;9212;50.894;16.714;2022-12-08T00:47:20;0.20;99.90
18175;DHT22;9212;50.894;16.714;2022-12-08T00:49:47;0.40;99.90
18175;DHT22;9212;50.894;16.714;2022-12-08T00:52:14;0.40;99.90
18175;DHT22;9212;50.894;16.714;2022-12-08T00:57:08;0.30;99.90
18175;DHT22;9212;50.894;16.714;2022-12-08T00:59:36;0.40;99.90
18175;DHT22;9212;50.894;16.714;2022-12-08T01:04:31;0.00;99.90
18175;DHT22;9212;50.894;16.714;2022-12-08T01:14:20;0.40;99.90
18175;DHT22;9212;50.894;16.714;2022-12-08T01:16:47;0.40;99.90
18175;DHT22;9212;50.894;16.714;2022-12-08T01:19:14;0.50;99.90
18175;DHT22;9212;50.894;16.714;2022-12-08T01:21:44;0.50;99.90
18175;DHT22;9212;50.894;16.714;2022-12-08T01:24:12;-0.20;99.90
18175;DHT22;9212;50.894;16.714;2022-12-08T01:26:39;0.40;99.90
18175;DHT22;9212;50.894;16.714;2022-12-08T01:29:07;0.50;99.90
18175;DHT22;9212;50.894;16.714;2022-12-08T01:31:34;0.10;99.90
18175;DHT22;9212;50.894;16.714;2022-12-08T01:36:30;0.60;99.90
18175;DHT22;9212;50.894;16.714;2022-12-08T01:39:00;0.90;99.90
18175;DHT22;9212;50.894;16.714;2022-12-08T01:41:29;1.10;99.90
18175;DHT22;9212;50.894;16.714;2022-12-08T01:43:58;1.20;99.90
18175;DHT22;9212;50.894;16.714;2022-12-08T01:46:27;1.30;99.90
18175;DHT22;9212;50.894;16.714;2022-12-08T01:48:58;1.30;99.90
18175;DHT22;9212;50.894;16.714;2022-12-08T01:51:27;1.10;99.90
18175;DHT22;9212;50.894;16.714;2022-12-08T01:53:56;1.00;99.90
18175;DHT22;9212;50.894;16.714;2022-12-08T01:56:30;1.10;99.90
18175;DHT22;9212;50.894;16.714;2022-12-08T01:58:58;1.30;99.90
18175;DHT22;9212;50.894;16.714;2022-12-08T02:01:25;0.80;99.90
18175;DHT22;9212;50.894;16.714;2022-12-08T02:03:57;1.00;99.90
18175;DHT22;9212;50.894;16.714;2022-12-08T02:06:25;1.90;99.90
18175;DHT22;9212;50.894;16.714;2022-12-08T02:11:21;1.10;99.90
18175;DHT22;9212;50.894;16.714;2022-12-08T02:13:49;1.10;99.90
18175;DHT22;9212;50.894;16.714;2022-12-08T02:16:28;0.90;99.90
18175;DHT22;9212;50.894;16.714;2022-12-08T02:19:26;0.90;99.90
18175;DHT22;9212;50.894;16.714;2022-12-08T02:22:02;1.00;99.90
18175;DHT22;9212;50.894;16.714;2022-12-08T02:24:35;1.30;99.90
18175;DHT22;9212;50.894;16.714;2022-12-08T02:27:24;1.40;99.90
18175;DHT22;9212;50.894;16.714;2022-12-08T02:30:14;0.60;99.90
18175;DHT22;9212;50.894;16.714;2022-12-08T02:33:36;1.40;99.90
18175;DHT22;9212;50.894;16.714;2022-12-08T02:36:06;1.50;99.90
18175;DHT22;9212;50.894;16.714;2022-12-08T02:38:43;1.60;99.90
18175;DHT22;9212;50.894;16.714;2022-12-08T02:41:18;1.60;99.90
18175;DHT22;9212;50.894;16.714;2022-12-08T02:43:47;1.60;99.90
18175;DHT22;9212;50.894;16.714;2022-12-08T02:46:18;1.60;99.90
18175;DHT22;9212;50.894;16.714;2022-12-08T02:48:49;1.40;99.90
18175;DHT22;9212;50.894;16.714;2022-12-08T02:51:16;1.60;99.90
18175;DHT22;9212;50.894;16.714;2022-12-08T02:56:17;1.60;99.90
18175;DHT22;9212;50.894;16.714;2022-12-08T02:59:03;1.00;99.90
18175;DHT22;9212;50.894;16.714;2022-12-08T03:01:47;1.70;99.90
18175;DHT22;9212;50.894;16.714;2022-12-08T03:04:25;1.40;99.90
18175;DHT22;9212;50.894;16.714;2022-12-08T03:06:58;1.70;99.90
18175;DHT22;9212;50.894;16.714;2022-12-08T03:09:35;1.70;99.90
18175;DHT22;9212;50.894;16.714;2022-12-08T03:12:08;1.60;99.90
18175;DHT22;9212;50.894;16.714;2022-12-08T03:14:40;1.60;99.90
18175;DHT22;9212;50.894;16.714;2022-12-08T03:17:10;1.70;99.90
18175;DHT22;9212;50.894;16.714;2022-12-08T03:19:41;1.60;99.90
18175;DHT22;9212;50.894;16.714;2022-12-08T03:22:10;1.90;99.90
18175;DHT22;9212;50.894;16.714;2022-12-08T03:24:41;1.90;99.90
18175;DHT22;9212;50.894;16.714;2022-12-08T03:27:11;2.10;99.90
18175;DHT22;9212;50.894;16.714;2022-12-08T03:29:39;2.40;99.90
18175;DHT22;9212;50.894;16.714;2022-12-08T03:32:09;2.20;99.90
18175;DHT22;9212;50.894;16.714;2022-12-08T03:34:41;3.10;99.90
18175;DHT22;9212;50.894;16.714;2022-12-08T03:37:09;2.40;99.90
18175;DHT22;9212;50.894;16.714;2022-12-08T03:39:36;2.60;99.90
18175;DHT22;9212;50.894;16.714;2022-12-08T03:42:03;2.20;99.90
18175;DHT22;9212;50.894;16.714;2022-12-08T03:44:30;2.30;99.90
18175;DHT22;9212;50.894;16.714;2022-12-08T03:49:24;2.20;99.90
18175;DHT22;9212;50.894;16.714;2022-12-08T03:51:52;2.10;99.90
18175;DHT22;9212;50.894;16.714;2022-12-08T03:54:19;2.10;99.90
18175;DHT22;9212;50.894;16.714;2022-12-08T03:56:46;1.90;99.90
18175;DHT22;9212;50.894;16.714;2022-12-08T03:59:13;1.50;99.90
18175;DHT22;9212;50.894;16.714;2022-12-08T04:01:40;1.50;99.90
18175;DHT22;9212;50.894;16.714;2022-12-08T04:04:07;1.40;99.90
18175;DHT22;9212;50.894;16.714;2022-12-08T04:06:34;0.70;99.90
18175;DHT22;9212;50.894;16.714;2022-12-08T04:09:03;1.70;99.90
18175;DHT22;9212;50.894;16.714;2022-12-08T04:11:30;1.30;99.90
18175;DHT22;9212;50.894;16.714;2022-12-08T04:13:56;1.10;99.90
18175;DHT22;9212;50.894;16.714;2022-12-08T04:16:24;1.20;99.90
18175;DHT22;9212;50.894;16.714;2022-12-08T04:18:53;0.60;99.90
18175;DHT22;9212;50.894;16.714;2022-12-08T04:23:47;0.60;99.90
18175;DHT22;9212;50.894;16.714;2022-12-08T04:26:16;2.10;99.90
18175;DHT22;9212;50.894;16.714;2022-12-08T04:28:43;1.00;99.90
18175;DHT22;9212;50.894;16.714;2022-12-08T04:31:10;1.00;99.90
18175;DHT22;9212;50.894;16.714;2022-12-08T04:33:37;1.30;99.90
18175;DHT22;9212;50.894;16.714;2022-12-08T04:36:05;1.40;99.90
18175;DHT22;9212;50.894;16.714;2022-12-08T04:38:33;1.50;99.90
18175;DHT22;9212;50.894;16.714;2022-12-08T04:41:00;1.40;99.90
18175;DHT22;9212;50.894;16.714;2022-12-08T04:43:28;1.50;99.90
18175;DHT22;9212;50.894;16.714;2022-12-08T04:45:55;1.40;99.90
18175;DHT22;9212;50.894;16.714;2022-12-08T04:48:22;1.30;99.90
18175;DHT22;9212;50.894;16.714;2022-12-08T04:50:49;1.50;99.90
18175;DHT22;9212;50.894;16.714;2022-12-08T04:53:16;1.60;99.90
18175;DHT22;9212;50.894;16.714;2022-12-08T04:55:44;1.60;99.90
18175;DHT22;9212;50.894;16.714;2022-12-08T04:58:14;2.10;99.90
18175;DHT22;9212;50.894;16.714;2022-12-08T05:00:42;2.70;99.90
18175;DHT22;9212;50.894;16.714;2022-12-08T05:03:10;2.20;99.90
18175;DHT22;9212;50.894;16.714;2022-12-08T05:05:37;2.20;99.90
18175;DHT22;9212;50.894;16.714;2022-12-08T05:08:05;2.10;99.90
18175;DHT22;9212;50.894;16.714;2022-12-08T05:10:32;2.10;99.90
18175;DHT22;9212;50.894;16.714;2022-12-08T05:15:26;2.10;99.90
18175;DHT22;9212;50.894;16.714;2022-12-08T05:17:54;2.40;99.90
18175;DHT22;9212;50.894;16.714;2022-12-08T05:20:21;1.90;99.90
18175;DHT22;9212;50.894;16.714;2022-12-08T05:22:48;2.30;99.90
18175;DHT22;9212;50.894;16.714;2022-12-08T05:25:15;2.50;99.90
18175;DHT22;9212;50.894;16.714;2022-12-08T05:30:10;2.00;99.90
18175;DHT22;9212;50.894;16.714;2022-12-08T05:35:06;2.00;99.90
18175;DHT22;9212;50.894;16.714;2022-12-08T05:37:33;1.90;99.90
18175;DHT22;9212;50.894;16.714;2022-12-08T05:40:00;2.20;99.90
18175;DHT22;9212;50.894;16.714;2022-12-08T05:42:27;2.10;99.90
18175;DHT22;9212;50.894;16.714;2022-12-08T05:44:54;2.20;99.90
18175;DHT22;9212;50.894;16.714;2022-12-08T05:47:21;2.10;99.90
18175;DHT22;9212;50.894;16.714;2022-12-08T05:49:48;2.00;99.90
18175;DHT22;9212;50.894;16.714;2022-12-08T05:52:16;2.10;99.90
18175;DHT22;9212;50.894;16.714;2022-12-08T05:54:43;1.70;99.90
18175;DHT22;9212;50.894;16.714;2022-12-08T05:57:10;1.90;99.90
18175;DHT22;9212;50.894;16.714;2022-12-08T05:59:38;1.80;99.90
18175;DHT22;9212;50.894;16.714;2022-12-08T06:02:05;1.90;99.90
18175;DHT22;9212;50.894;16.714;2022-12-08T06:04:33;2.00;99.90
18175;DHT22;9212;50.894;16.714;2022-12-08T06:07:00;1.80;99.90
18175;DHT22;9212;50.894;16.714;2022-12-08T06:09:28;2.00;99.90
18175;DHT22;9212;50.894;16.714;2022-12-08T06:14:22;2.10;99.90
18175;DHT22;9212;50.894;16.714;2022-12-08T06:16:49;1.80;99.90
18175;DHT22;9212;50.894;16.714;2022-12-08T06:19:16;2.10;99.90
18175;DHT22;9212;50.894;16.714;2022-12-08T06:21:43;2.30;99.90
18175;DHT22;9212;50.894;16.714;2022-12-08T06:24:10;2.60;99.90
18175;DHT22;9212;50.894;16.714;2022-12-08T06:26:39;2.40;99.90
18175;DHT22;9212;50.894;16.714;2022-12-08T06:31:33;2.40;99.90
18175;DHT22;9212;50.894;16.714;2022-12-08T06:34:00;2.40;99.90
18175;DHT22;9212;50.894;16.714;2022-12-08T06:36:27;2.70;99.90
18175;DHT22;9212;50.894;16.714;2022-12-08T06:38:54;2.30;99.90
18175;DHT22;9212;50.894;16.714;2022-12-08T06:41:21;2.30;99.90
18175;DHT22;9212;50.894;16.714;2022-12-08T06:43:50;2.30;99.90
18175;DHT22;9212;50.894;16.714;2022-12-08T06:46:18;2.40;99.90
18175;DHT22;9212;50.894;16.714;2022-12-08T06:48:45;2.40;99.90
18175;DHT22;9212;50.894;16.714;2022-12-08T06:51:14;2.50;99.90
18175;DHT22;9212;50.894;16.714;2022-12-08T06:53:42;2.40;99.90
18175;DHT22;9212;50.894;16.714;2022-12-08T06:56:10;2.40;99.90
18175;DHT22;9212;50.894;16.714;2022-12-08T06:58:37;2.40;99.90
18175;DHT22;9212;50.894;16.714;2022-12-08T07:01:07;2.40;99.90
18175;DHT22;9212;50.894;16.714;2022-12-08T07:03:35;2.40;99.90
18175;DHT22;9212;50.894;16.714;2022-12-08T07:06:02;3.20;99.90
18175;DHT22;9212;50.894;16.714;2022-12-08T07:08:30;2.40;99.90
18175;DHT22;9212;50.894;16.714;2022-12-08T07:10:57;2.40;99.90
18175;DHT22;9212;50.894;16.714;2022-12-08T07:13:24;2.40;99.90
18175;DHT22;9212;50.894;16.714;2022-12-08T07:15:51;2.30;99.90
18175;DHT22;9212;50.894;16.714;2022-12-08T07:18:19;2.30;99.90
18175;DHT22;9212;50.894;16.714;2022-12-08T07:20:46;2.90;99.90
18175;DHT22;9212;50.894;16.714;2022-12-08T07:25:41;2.40;99.90
18175;DHT22;9212;50.894;16.714;2022-12-08T07:28:09;2.30;99.90
18175;DHT22;9212;50.894;16.714;2022-12-08T07:30:37;2.50;99.90
18175;DHT22;9212;50.894;16.714;2022-12-08T07:33:04;2.60;99.90
18175;DHT22;9212;50.894;16.714;2022-12-08T07:45:29;2.60;99.90
18175;DHT22;9212;50.894;16.714;2022-12-08T07:50:23;2.80;99.90
18175;DHT22;9212;50.894;16.714;2022-12-08T07:52:51;2.70;99.90
18175;DHT22;9212;50.894;16.714;2022-12-08T07:55:21;2.70;99.90
18175;DHT22;9212;50.894;16.714;2022-12-08T07:57:51;2.70;99.90
18175;DHT22;9212;50.894;16.714;2022-12-08T08:00:28;2.70;99.90
18175;DHT22;9212;50.894;16.714;2022-12-08T08:05:23;2.80;99.90
18175;DHT22;9212;50.894;16.714;2022-12-08T08:07:51;2.80;99.90
18175;DHT22;9212;50.894;16.714;2022-12-08T08:10:20;3.60;99.90
18175;DHT22;9212;50.894;16.714;2022-12-08T08:12:47;3.10;99.90
18175;DHT22;9212;50.894;16.714;2022-12-08T08:15:18;2.80;99.90
18175;DHT22;9212;50.894;16.714;2022-12-08T08:17:48;3.20;99.90
18175;DHT22;9212;50.894;16.714;2022-12-08T08:20:19;2.90;99.90
18175;DHT22;9212;50.894;16.714;2022-12-08T08:22:51;2.80;99.90
18175;DHT22;9212;50.894;16.714;2022-12-08T08:25:20;2.90;99.90
18175;DHT22;9212;50.894;16.714;2022-12-08T08:27:48;3.00;99.90
18175;DHT22;9212;50.894;16.714;2022-12-08T08:30:15;3.10;99.90
18175;DHT22;9212;50.894;16.714;2022-12-08T08:32:47;3.10;99.90
18175;DHT22;9212;50.894;16.714;2022-12-08T08:40:12;3.10;99.90
18175;DHT22;9212;50.894;16.714;2022-12-08T08:42:40;3.30;99.90
18175;DHT22;9212;50.894;16.714;2022-12-08T08:47:40;3.20;99.90
18175;DHT22;9212;50.894;16.714;2022-12-08T08:50:07;3.90;99.90
18175;DHT22;9212;50.894;16.714;2022-12-08T08:57:32;3.10;99.90
18175;DHT22;9212;50.894;16.714;2022-12-08T09:05:02;3.30;99.90
18175;DHT22;9212;50.894;16.714;2022-12-08T09:07:29;3.40;99.90
18175;DHT22;9212;50.894;16.714;2022-12-08T09:09:56;3.10;99.90
18175;DHT22;9212;50.894;16.714;2022-12-08T09:12:25;3.50;99.90
18175;DHT22;9212;50.894;16.714;2022-12-08T09:14:53;3.50;99.90
18175;DHT22;9212;50.894;16.714;2022-12-08T09:22:23;3.60;99.90
18175;DHT22;9212;50.894;16.714;2022-12-08T09:24:50;3.70;99.90
18175;DHT22;9212;50.894;16.714;2022-12-08T09:27:17;3.60;99.90
18175;DHT22;9212;50.894;16.714;2022-12-08T09:29:53;3.70;99.90
18175;DHT22;9212;50.894;16.714;2022-12-08T09:32:20;3.70;99.90
18175;DHT22;9212;50.894;16.714;2022-12-08T09:34:47;3.80;99.90
18175;DHT22;9212;50.894;16.714;2022-12-08T09:37:14;3.60;99.90
18175;DHT22;9212;50.894;16.714;2022-12-08T09:39:43;3.70;99.90
18175;DHT22;9212;50.894;16.714;2022-12-08T09:42:10;3.70;99.90
18175;DHT22;9212;50.894;16.714;2022-12-08T09:44:53;3.80;99.90
18175;DHT22;9212;50.894;16.714;2022-12-08T09:47:24;3.90;99.90
18175;DHT22;9212;50.894;16.714;2022-12-08T09:49:58;3.90;99.90
18175;DHT22;9212;50.894;16.714;2022-12-08T09:52:33;3.90;99.90
18175;DHT22;9212;50.894;16.714;2022-12-08T09:55:13;4.00;99.90
18175;DHT22;9212;50.894;16.714;2022-12-08T09:57:43;4.00;99.90
18175;DHT22;9212;50.894;16.714;2022-12-08T10:00:15;4.20;99.90
18175;DHT22;9212;50.894;16.714;2022-12-08T10:02:44;4.80;99.90
18175;DHT22;9212;50.894;16.714;2022-12-08T10:05:13;4.10;99.90
18175;DHT22;9212;50.894;16.714;2022-12-08T10:07:48;4.10;99.90
18175;DHT22;9212;50.894;16.714;2022-12-08T10:10:28;4.10;99.90
18175;DHT22;9212;50.894;16.714;2022-12-08T10:13:07;4.10;99.90
18175;DHT22;9212;50.894;16.714;2022-12-08T10:15:46;4.10;99.90
18175;DHT22;9212;50.894;16.714;2022-12-08T10:18:18;4.10;99.90
18175;DHT22;9212;50.894;16.714;2022-12-08T10:20:46;4.20;99.90
18175;DHT22;9212;50.894;16.714;2022-12-08T10:23:20;4.10;99.90
18175;DHT22;9212;50.894;16.714;2022-12-08T10:25:49;4.20;99.90
18175;DHT22;9212;50.894;16.714;2022-12-08T10:28:16;4.40;99.90
18175;DHT22;9212;50.894;16.714;2022-12-08T10:30:45;4.40;99.90
18175;DHT22;9212;50.894;16.714;2022-12-08T10:33:14;4.50;99.90
18175;DHT22;9212;50.894;16.714;2022-12-08T10:35:43;4.60;99.90
18175;DHT22;9212;50.894;16.714;2022-12-08T10:38:20;4.80;99.90
18175;DHT22;9212;50.894;16.714;2022-12-08T10:41:02;4.90;99.90
18175;DHT22;9212;50.894;16.714;2022-12-08T10:43:34;4.80;99.90
18175;DHT22;9212;50.894;16.714;2022-12-08T10:46:12;5.10;99.90
18175;DHT22;9212;50.894;16.714;2022-12-08T10:48:48;4.90;99.90
18175;DHT22;9212;50.894;16.714;2022-12-08T10:51:24;5.10;99.90
18175;DHT22;9212;50.894;16.714;2022-12-08T10:53:57;5.10;99.90
18175;DHT22;9212;50.894;16.714;2022-12-08T10:56:26;5.10;99.90
18175;DHT22;9212;50.894;16.714;2022-12-08T10:59:11;4.90;99.90
18175;DHT22;9212;50.894;16.714;2022-12-08T11:01:41;5.10;99.90
18175;DHT22;9212;50.894;16.714;2022-12-08T11:04:14;5.30;99.90
18175;DHT22;9212;50.894;16.714;2022-12-08T11:06:42;4.90;99.90
18175;DHT22;9212;50.894;16.714;2022-12-08T11:09:23;5.00;99.90
18175;DHT22;9212;50.894;16.714;2022-12-08T11:11:56;4.60;99.90
18175;DHT22;9212;50.894;16.714;2022-12-08T11:14:24;5.20;99.90
18175;DHT22;9212;50.894;16.714;2022-12-08T11:16:55;5.10;99.90
18175;DHT22;9212;50.894;16.714;2022-12-08T11:24:29;4.90;99.90
18175;DHT22;9212;50.894;16.714;2022-12-08T11:27:02;5.00;99.90
18175;DHT22;9212;50.894;16.714;2022-12-08T11:29:31;4.80;99.90
18175;DHT22;9212;50.894;16.714;2022-12-08T11:32:05;4.80;99.90
18175;DHT22;9212;50.894;16.714;2022-12-08T11:34:47;4.80;99.90
18175;DHT22;9212;50.894;16.714;2022-12-08T11:37:20;4.80;99.90
18175;DHT22;9212;50.894;16.714;2022-12-08T11:39:52;4.80;99.90
18175;DHT22;9212;50.894;16.714;2022-12-08T11:42:31;4.90;99.90
18175;DHT22;9212;50.894;16.714;2022-12-08T11:45:05;4.90;99.90
18175;DHT22;9212;50.894;16.714;2022-12-08T11:47:39;4.90;99.90
18175;DHT22;9212;50.894;16.714;2022-12-08T11:50:18;5.00;99.90
18175;DHT22;9212;50.894;16.714;2022-12-08T11:52:48;4.80;99.90
18175;DHT22;9212;50.894;16.714;2022-12-08T11:55:28;4.80;99.90
18175;DHT22;9212;50.894;16.714;2022-12-08T11:57:59;5.30;99.90
18175;DHT22;9212;50.894;16.714;2022-12-08T12:03:10;5.40;99.90
18175;DHT22;9212;50.894;16.714;2022-12-08T12:05:49;4.70;99.90
18175;DHT22;9212;50.894;16.714;2022-12-08T12:08:34;4.80;99.90
18175;DHT22;9212;50.894;16.714;2022-12-08T12:11:11;4.80;99.90
18175;DHT22;9212;50.894;16.714;2022-12-08T12:14:15;4.90;99.90
18175;DHT22;9212;50.894;16.714;2022-12-08T12:16:56;4.90;99.90
18175;DHT22;9212;50.894;16.714;2022-12-08T12:19:28;4.90;99.90
18175;DHT22;9212;50.894;16.714;2022-12-08T12:22:11;4.80;99.90
18175;DHT22;9212;50.894;16.714;2022-12-08T12:24:42;4.70;99.90
18175;DHT22;9212;50.894;16.714;2022-12-08T12:27:21;4.80;99.90
18175;DHT22;9212;50.894;16.714;2022-12-08T12:29:51;4.70;99.90
18175;DHT22;9212;50.894;16.714;2022-12-08T12:32:19;4.70;99.90
18175;DHT22;9212;50.894;16.714;2022-12-08T12:34:51;4.80;99.90
18175;DHT22;9212;50.894;16.714;2022-12-08T12:37:20;4.70;99.90
18175;DHT22;9212;50.894;16.714;2022-12-08T12:39:54;4.60;99.90
18175;DHT22;9212;50.894;16.714;2022-12-08T12:42:36;4.60;99.90
18175;DHT22;9212;50.894;16.714;2022-12-08T12:45:29;4.50;99.90
18175;DHT22;9212;50.894;16.714;2022-12-08T12:48:19;4.50;99.90
18175;DHT22;9212;50.894;16.714;2022-12-08T12:50:49;4.50;99.90
18175;DHT22;9212;50.894;16.714;2022-12-08T12:53:45;5.20;99.90
18175;DHT22;9212;50.894;16.714;2022-12-08T12:56:46;4.30;99.90
18175;DHT22;9212;50.894;16.714;2022-12-08T12:59:40;4.00;99.90
18175;DHT22;9212;50.894;16.714;2022-12-08T13:02:21;4.60;99.90
18175;DHT22;9212;50.894;16.714;2022-12-08T13:04:58;4.10;99.90
18175;DHT22;9212;50.894;16.714;2022-12-08T13:12:30;3.80;99.90
18175;DHT22;9212;50.894;16.714;2022-12-08T13:15:05;3.30;99.90
18175;DHT22;9212;50.894;16.714;2022-12-08T13:17:35;4.60;99.90
18175;DHT22;9212;50.894;16.714;2022-12-08T13:20:05;3.50;99.90
18175;DHT22;9212;50.894;16.714;2022-12-08T13:23:00;3.80;99.90
18175;DHT22;9212;50.894;16.714;2022-12-08T13:29:04;3.70;99.90
18175;DHT22;9212;50.894;16.714;2022-12-08T13:31:39;3.70;99.90
18175;DHT22;9212;50.894;16.714;2022-12-08T13:34:13;3.50;99.90
18175;DHT22;9212;50.894;16.714;2022-12-08T13:36:46;2.80;99.90
18175;DHT22;9212;50.894;16.714;2022-12-08T13:39:24;3.50;99.90
18175;DHT22;9212;50.894;16.714;2022-12-08T13:42:01;3.50;99.90
18175;DHT22;9212;50.894;16.714;2022-12-08T13:44:34;3.50;99.90
18175;DHT22;9212;50.894;16.714;2022-12-08T13:47:09;3.30;99.90
18175;DHT22;9212;50.894;16.714;2022-12-08T13:49:43;4.40;99.90
18175;DHT22;9212;50.894;16.714;2022-12-08T13:52:24;3.20;99.90
18175;DHT22;9212;50.894;16.714;2022-12-08T13:54:56;3.30;99.90
18175;DHT22;9212;50.894;16.714;2022-12-08T13:57:30;3.20;99.90
18175;DHT22;9212;50.894;16.714;2022-12-08T14:00:00;4.40;99.90
18175;DHT22;9212;50.894;16.714;2022-12-08T14:02:31;3.10;99.90
18175;DHT22;9212;50.894;16.714;2022-12-08T14:07:27;2.90;99.90
18175;DHT22;9212;50.894;16.714;2022-12-08T14:09:56;2.90;99.90
18175;DHT22;9212;50.894;16.714;2022-12-08T14:12:26;2.90;99.90
18175;DHT22;9212;50.894;16.714;2022-12-08T14:14:57;2.70;99.90
18175;DHT22;9212;50.894;16.714;2022-12-08T14:17:26;2.90;99.90
18175;DHT22;9212;50.894;16.714;2022-12-08T14:19:56;2.90;99.90
18175;DHT22;9212;50.894;16.714;2022-12-08T14:22:23;3.00;99.90
18175;DHT22;9212;50.894;16.714;2022-12-08T14:24:52;2.20;99.90
18175;DHT22;9212;50.894;16.714;2022-12-08T14:27:22;2.90;99.90
18175;DHT22;9212;50.894;16.714;2022-12-08T14:29:50;2.80;99.90
18175;DHT22;9212;50.894;16.714;2022-12-08T14:32:24;2.90;99.90
18175;DHT22;9212;50.894;16.714;2022-12-08T14:34:54;3.00;99.90
18175;DHT22;9212;50.894;16.714;2022-12-08T14:37:25;2.60;99.90
18175;DHT22;9212;50.894;16.714;2022-12-08T14:39:57;3.30;99.90
18175;DHT22;9212;50.894;16.714;2022-12-08T14:42:30;2.70;99.90
18175;DHT22;9212;50.894;16.714;2022-12-08T14:45:01;2.70;99.90
18175;DHT22;9212;50.894;16.714;2022-12-08T14:47:31;2.50;99.90
18175;DHT22;9212;50.894;16.714;2022-12-08T14:49:58;2.90;99.90
18175;DHT22;9212;50.894;16.714;2022-12-08T14:52:26;2.00;99.90
18175;DHT22;9212;50.894;16.714;2022-12-08T14:54:53;2.60;99.90
18175;DHT22;9212;50.894;16.714;2022-12-08T14:57:21;1.60;99.90
18175;DHT22;9212;50.894;16.714;2022-12-08T14:59:50;2.30;99.90
18175;DHT22;9212;50.894;16.714;2022-12-08T15:02:24;2.30;99.90
18175;DHT22;9212;50.894;16.714;2022-12-08T15:04:58;2.30;99.90
18175;DHT22;9212;50.894;16.714;2022-12-08T15:07:27;2.30;99.90
18175;DHT22;9212;50.894;16.714;2022-12-08T15:10:23;1.80;99.90
18175;DHT22;9212;50.894;16.714;2022-12-08T15:13:21;2.10;99.90
18175;DHT22;9212;50.894;16.714;2022-12-08T15:15:51;3.50;99.90
18175;DHT22;9212;50.894;16.714;2022-12-08T15:18:27;2.50;99.90
18175;DHT22;9212;50.894;16.714;2022-12-08T15:21:00;2.30;99.90
18175;DHT22;9212;50.894;16.714;2022-12-08T15:23:29;2.30;99.90
18175;DHT22;9212;50.894;16.714;2022-12-08T15:25:58;2.30;99.90
18175;DHT22;9212;50.894;16.714;2022-12-08T15:28:26;3.50;99.90
18175;DHT22;9212;50.894;16.714;2022-12-08T15:30:55;2.80;99.90
18175;DHT22;9212;50.894;16.714;2022-12-08T15:35:50;2.40;99.90
18175;DHT22;9212;50.894;16.714;2022-12-08T15:38:20;2.50;99.90
18175;DHT22;9212;50.894;16.714;2022-12-08T15:40:48;3.20;99.90
18175;DHT22;9212;50.894;16.714;2022-12-08T15:43:15;2.60;99.90
18175;DHT22;9212;50.894;16.714;2022-12-08T15:45:42;2.30;99.90
18175;DHT22;9212;50.894;16.714;2022-12-08T15:48:15;2.40;99.90
18175;DHT22;9212;50.894;16.714;2022-12-08T15:50:43;2.40;99.90
18175;DHT22;9212;50.894;16.714;2022-12-08T15:53:10;2.60;99.90
18175;DHT22;9212;50.894;16.714;2022-12-08T15:55:38;2.40;99.90
18175;DHT22;9212;50.894;16.714;2022-12-08T15:58:05;2.50;99.90
18175;DHT22;9212;50.894;16.714;2022-12-08T16:00:34;2.40;99.90
18175;DHT22;9212;50.894;16.714;2022-12-08T16:03:02;3.50;99.90
18175;DHT22;9212;50.894;16.714;2022-12-08T16:05:31;2.60;99.90
18175;DHT22;9212;50.894;16.714;2022-12-08T16:07:57;2.50;99.90
18175;DHT22;9212;50.894;16.714;2022-12-08T16:10:26;2.60;99.90
18175;DHT22;9212;50.894;16.714;2022-12-08T16:12:53;2.50;99.90
18175;DHT22;9212;50.894;16.714;2022-12-08T16:15:39;2.40;99.90
18175;DHT22;9212;50.894;16.714;2022-12-08T16:18:06;2.60;99.90
18175;DHT22;9212;50.894;16.714;2022-12-08T16:20:37;2.60;99.90
18175;DHT22;9212;50.894;16.714;2022-12-08T16:23:04;2.60;99.90
18175;DHT22;9212;50.894;16.714;2022-12-08T16:25:31;2.50;99.90
18175;DHT22;9212;50.894;16.714;2022-12-08T16:27:57;2.70;99.90
18175;DHT22;9212;50.894;16.714;2022-12-08T16:32:52;1.80;99.90
18175;DHT22;9212;50.894;16.714;2022-12-08T16:35:18;2.50;99.90
18175;DHT22;9212;50.894;16.714;2022-12-08T16:37:47;2.50;99.90
18175;DHT22;9212;50.894;16.714;2022-12-08T16:40:14;2.40;99.90
18175;DHT22;9212;50.894;16.714;2022-12-08T16:42:41;2.40;99.90
18175;DHT22;9212;50.894;16.714;2022-12-08T16:45:10;2.60;99.90
18175;DHT22;9212;50.894;16.714;2022-12-08T16:47:39;2.70;99.90
18175;DHT22;9212;50.894;16.714;2022-12-08T16:50:08;2.50;99.90
18175;DHT22;9212;50.894;16.714;2022-12-08T16:52:36;2.60;99.90
18175;DHT22;9212;50.894;16.714;2022-12-08T16:55:08;2.30;99.90
18175;DHT22;9212;50.894;16.714;2022-12-08T16:57:35;2.00;99.90
18175;DHT22;9212;50.894;16.714;2022-12-08T17:00:06;2.20;99.90
18175;DHT22;9212;50.894;16.714;2022-12-08T17:02:33;2.80;99.90
18175;DHT22;9212;50.894;16.714;2022-12-08T17:05:00;1.90;99.90
18175;DHT22;9212;50.894;16.714;2022-12-08T17:07:27;1.50;99.90
18175;DHT22;9212;50.894;16.714;2022-12-08T17:09:54;1.60;99.90
18175;DHT22;9212;50.894;16.714;2022-12-08T17:12:23;1.40;99.90
18175;DHT22;9212;50.894;16.714;2022-12-08T17:17:17;1.10;99.90
18175;DHT22;9212;50.894;16.714;2022-12-08T17:22:11;0.90;99.90
18175;DHT22;9212;50.894;16.714;2022-12-08T17:27:05;0.70;99.90
18175;DHT22;9212;50.894;16.714;2022-12-08T17:29:33;0.90;99.90
18175;DHT22;9212;50.894;16.714;2022-12-08T17:32:00;1.00;99.90
18175;DHT22;9212;50.894;16.714;2022-12-08T17:34:27;0.70;99.90
18175;DHT22;9212;50.894;16.714;2022-12-08T17:36:54;1.10;99.90
18175;DHT22;9212;50.894;16.714;2022-12-08T17:39:22;1.30;99.90
18175;DHT22;9212;50.894;16.714;2022-12-08T17:41:48;1.40;99.90
18175;DHT22;9212;50.894;16.714;2022-12-08T17:44:17;1.30;99.90
18175;DHT22;9212;50.894;16.714;2022-12-08T17:46:46;1.40;99.90
18175;DHT22;9212;50.894;16.714;2022-12-08T17:49:16;1.40;99.90
18175;DHT22;9212;50.894;16.714;2022-12-08T17:51:45;1.10;99.90
18175;DHT22;9212;50.894;16.714;2022-12-08T17:54:13;1.10;99.90
18175;DHT22;9212;50.894;16.714;2022-12-08T17:56:44;0.90;99.90
18175;DHT22;9212;50.894;16.714;2022-12-08T17:59:11;1.20;99.90
18175;DHT22;9212;50.894;16.714;2022-12-08T18:01:39;1.30;99.90